Time;durP1;ratioP1;P1;durP2;ratioP2;P2;SDS_P1;SDS_P2;PMS_P1;PMS_P2;Temp;Humidity;BMP_temperature;BMP_pressure;BME280_temperature;BME280_humidity;BME280_pressure;Samples;Min_cycle;Max_cycle;Signal;HPM_P1;HPM_P2
2021/03/31 00:00:25;;;;;;;11.33;6.97;;;11.60;60.50;;;11.40;68.68;99123.22;5053048;28;20646;-66
2021/03/31 00:02:55;;;;;;;7.40;6.47;;;11.50;60.60;;;11.36;67.68;99124.31;5018386;28;20700;-66
2021/03/31 00:05:23;;;;;;;7.80;6.23;;;11.50;60.80;;;11.33;68.41;99121.03;5015336;28;20804;-66
2021/03/31 00:07:51;;;;;;;9.07;7.40;;;11.40;60.90;;;11.30;68.16;99121.22;5017389;28;20655;-66
2021/03/31 00:10:24;;;;;;;8.57;7.13;;;11.40;61.00;;;11.27;68.46;99121.38;5014316;28;20688;-66
2021/03/31 00:12:52;;;;;;;10.00;6.50;;;11.40;61.30;;;11.23;68.81;99124.22;5012196;28;20644;-66
2021/03/31 00:15:21;;;;;;;7.80;6.53;;;11.30;61.30;;;11.19;68.87;99117.50;5013281;28;21189;-66
2021/03/31 00:18:10;;;;;;;10.93;7.03;;;11.30;61.40;;;11.19;68.67;99113.13;5010786;28;20941;-66
2021/03/31 00:20:39;;;;;;;9.40;7.20;;;11.30;61.30;;;11.14;69.38;99117.75;5010063;28;20710;-66
2021/03/31 00:23:08;;;;;;;8.17;5.97;;;11.30;61.80;;;11.10;69.05;99115.41;5010523;28;20728;-66
2021/03/31 00:25:36;;;;;;;8.40;6.73;;;11.20;62.00;;;11.04;68.41;99116.56;5009932;28;20642;-66
2021/03/31 00:28:05;;;;;;;10.67;6.43;;;11.20;61.80;;;10.99;69.16;99115.97;5009323;28;20673;-66
2021/03/31 00:30:34;;;;;;;10.67;7.00;;;11.10;62.10;;;10.96;69.58;99113.53;5011115;28;20972;-66
2021/03/31 00:33:02;;;;;;;10.50;6.63;;;11.10;62.30;;;10.92;69.19;99106.78;5008043;28;20640;-66
2021/03/31 00:35:30;;;;;;;8.20;6.53;;;11.10;62.30;;;10.90;69.25;99110.41;5008948;28;20662;-66
2021/03/31 00:37:58;;;;;;;10.00;6.80;;;11.00;62.20;;;10.84;69.27;99101.13;5012870;28;20645;-67
2021/03/31 00:40:30;;;;;;;11.17;7.23;;;11.00;62.50;;;10.80;69.48;99107.41;5009900;28;20963;-66
2021/03/31 00:42:58;;;;;;;9.57;6.50;;;10.90;62.60;;;10.80;69.46;99108.38;5011844;28;20647;-66
2021/03/31 00:45:26;;;;;;;8.40;6.60;;;10.90;62.80;;;10.75;69.77;99108.63;5006943;28;20640;-66
2021/03/31 00:47:54;;;;;;;9.00;6.77;;;10.90;63.10;;;10.70;69.70;99102.78;5013115;28;20657;-66
2021/03/31 00:50:22;;;;;;;7.03;6.23;;;10.90;63.10;;;10.67;69.80;99102.09;5011615;28;21812;-66
2021/03/31 00:52:53;;;;;;;10.30;6.20;;;10.80;63.10;;;10.63;69.71;99098.81;5013792;28;20646;-66
2021/03/31 00:55:23;;;;;;;12.40;7.27;;;10.80;63.30;;;10.61;70.16;99098.03;5015548;28;20660;-66
2021/03/31 00:57:52;;;;;;;7.37;6.60;;;10.80;63.50;;;10.58;69.92;99097.34;5013084;28;20645;-66
2021/03/31 01:00:21;;;;;;;8.63;7.40;;;10.70;63.50;;;10.54;69.64;99094.06;5013862;28;20631;-66
2021/03/31 01:02:48;;;;;;;9.80;6.50;;;10.70;63.40;;;10.51;70.14;99098.63;5011393;28;20641;-66
2021/03/31 01:05:21;;;;;;;8.23;6.80;;;10.60;63.60;;;10.47;70.49;99094.47;5009949;28;21850;-66
2021/03/31 01:07:49;;;;;;;8.33;6.53;;;10.60;64.10;;;10.44;69.78;99094.63;5013734;28;20743;-66
2021/03/31 01:10:20;;;;;;;8.93;6.33;;;10.60;63.90;;;10.42;69.99;99099.09;5010281;28;20634;-66
2021/03/31 01:13:10;;;;;;;7.73;6.67;;;10.50;63.80;;;10.39;70.48;99092.25;5011490;28;20693;-66
2021/03/31 01:15:45;;;;;;;9.27;6.10;;;10.50;64.00;;;10.37;70.23;99104.53;5014293;28;20637;-66
2021/03/31 01:18:21;;;;;;;7.57;6.47;;;10.50;64.10;;;10.36;70.18;99091.59;5012475;28;21254;-66
2021/03/31 01:22:17;;;;;;;9.87;6.73;;;10.50;64.10;;;10.32;70.23;99082.22;5011810;28;20690;-66
2021/03/31 01:25:17;;;;;;;8.10;6.13;;;10.50;64.30;;;10.29;70.26;99078.94;4956354;28;20654;-66
2021/03/31 01:28:28;;;;;;;9.47;6.77;;;10.40;64.30;;;10.23;70.61;99080.09;4968570;28;20656;-66
2021/03/31 01:31:05;;;;;;;8.67;6.97;;;10.40;64.20;;;10.19;71.21;99088.97;5006614;28;21203;-66
2021/03/31 01:34:08;;;;;;;11.17;7.13;;;10.30;64.70;;;10.17;70.90;99077.78;5014691;28;20786;-66
2021/03/31 01:36:37;;;;;;;10.80;7.33;;;10.30;64.70;;;10.17;70.97;99069.97;5043749;28;21212;-66
2021/03/31 01:39:10;;;;;;;11.50;7.03;;;10.30;64.80;;;10.10;71.39;99073.84;5013354;28;20650;-66
2021/03/31 01:41:39;;;;;;;9.53;6.77;;;10.20;64.70;;;10.04;70.84;99068.06;5014084;28;20648;-66
2021/03/31 01:44:11;;;;;;;8.67;6.37;;;10.20;64.90;;;10.00;70.82;99066.56;5008445;28;20633;-66
2021/03/31 01:46:44;;;;;;;10.60;7.20;;;10.10;65.30;;;10.00;70.86;99067.38;5012209;28;20649;-66
2021/03/31 01:49:12;;;;;;;8.57;6.50;;;10.10;65.30;;;9.96;71.95;99063.25;5011597;28;21147;-66
2021/03/31 01:51:42;;;;;;;9.37;7.17;;;10.10;65.40;;;9.92;71.40;99064.28;5012512;28;20641;-66
2021/03/31 01:54:13;;;;;;;10.27;6.17;;;10.10;65.70;;;9.88;71.39;99072.34;5015233;28;20715;-66
2021/03/31 01:56:41;;;;;;;11.47;7.50;;;10.00;66.00;;;9.87;72.34;99068.03;5009842;28;20642;-66
2021/03/31 01:59:11;;;;;;;11.80;7.13;;;10.00;66.00;;;9.82;72.13;99056.16;5010710;28;21002;-66
2021/03/31 02:01:38;;;;;;;10.13;7.03;;;9.90;68.30;;;9.79;71.65;99048.50;5009589;28;21225;-66
2021/03/31 02:04:07;;;;;;;8.93;6.57;;;9.90;67.70;;;9.76;72.46;99051.25;5010841;28;20719;-66
2021/03/31 02:06:35;;;;;;;9.10;7.23;;;9.90;67.80;;;9.74;72.32;99053.09;5009783;28;20641;-66
2021/03/31 02:09:06;;;;;;;7.97;6.40;;;9.90;67.90;;;9.72;72.20;99052.34;5012071;28;20658;-66
2021/03/31 02:11:34;;;;;;;8.30;7.00;;;9.90;67.90;;;9.67;71.85;99044.75;5016898;28;20634;-66
2021/03/31 02:14:04;;;;;;;8.97;6.80;;;9.90;67.90;;;9.66;72.85;99044.81;5008623;28;20643;-66
2021/03/31 02:16:33;;;;;;;10.53;6.70;;;9.80;68.00;;;9.61;71.56;99041.63;5009262;28;20709;-66
2021/03/31 02:19:01;;;;;;;8.70;6.57;;;9.80;68.30;;;9.59;71.38;99038.22;5009074;28;20630;-66
2021/03/31 02:21:30;;;;;;;10.57;8.07;;;9.70;68.20;;;9.53;72.42;99039.38;5009647;28;20656;-66
2021/03/31 02:23:58;;;;;;;7.87;6.47;;;9.70;68.20;;;9.50;71.87;99038.66;5010248;28;20739;-66
2021/03/31 02:26:29;;;;;;;8.63;7.00;;;9.70;68.40;;;9.46;71.97;99037.16;5011363;28;20762;-66
2021/03/31 02:28:56;;;;;;;9.60;7.33;;;9.60;68.30;;;9.44;71.92;99031.16;5012404;28;20660;-66
2021/03/31 02:31:26;;;;;;;9.77;6.87;;;9.60;68.40;;;9.42;71.80;99036.44;5011361;28;21251;-66
2021/03/31 02:33:55;;;;;;;11.90;7.33;;;9.60;68.60;;;9.40;73.39;99034.84;5009577;28;20636;-66
2021/03/31 02:36:38;;;;;;;7.40;6.40;;;9.50;69.60;;;9.39;71.80;99030.53;5011010;28;20729;-66
2021/03/31 02:39:08;;;;;;;14.83;6.90;;;9.60;69.00;;;9.36;73.46;99027.25;5010567;28;20656;-66
2021/03/31 02:41:41;;;;;;;12.33;7.40;;;9.50;68.90;;;9.31;72.72;99027.47;5008973;28;20658;-66
2021/03/31 02:44:11;;;;;;;8.33;6.43;;;9.50;69.30;;;9.27;72.55;99023.34;5009206;28;21103;-66
2021/03/31 02:46:42;;;;;;;9.07;6.80;;;9.40;69.20;;;9.25;73.18;99019.97;5009572;28;20654;-66
2021/03/31 02:49:12;;;;;;;8.47;6.10;;;9.40;69.20;;;9.22;73.40;99016.69;5009024;28;20678;-66
2021/03/31 02:51:41;;;;;;;7.80;6.70;;;9.40;69.40;;;9.16;73.20;99012.59;5008710;28;20695;-66
2021/03/31 02:54:10;;;;;;;12.47;7.27;;;9.30;70.30;;;9.11;72.40;99017.19;5010169;28;20687;-66
2021/03/31 02:56:42;;;;;;;10.47;6.73;;;9.30;69.70;;;9.09;73.39;99016.41;5008752;28;21263;-66
2021/03/31 02:59:10;;;;;;;10.37;6.53;;;9.30;70.00;;;9.05;72.48;99009.69;5010257;28;20654;-66
2021/03/31 03:01:39;;;;;;;9.90;6.60;;;9.20;69.90;;;9.02;73.90;99007.22;5009868;28;20637;-66
2021/03/31 03:04:08;;;;;;;9.43;6.57;;;9.20;70.10;;;9.01;73.75;99002.94;5008692;28;20657;-66
2021/03/31 03:06:36;;;;;;;10.43;6.60;;;9.20;70.30;;;8.99;74.05;99009.97;5008920;28;20760;-66
2021/03/31 03:09:07;;;;;;;9.07;6.90;;;9.20;70.30;;;8.94;74.43;99003.28;5009009;28;20667;-66
2021/03/31 03:11:35;;;;;;;11.80;7.03;;;9.10;70.50;;;8.92;73.42;98998.16;5008448;28;20645;-66
2021/03/31 03:14:08;;;;;;;12.00;6.70;;;9.10;70.60;;;8.91;73.01;99000.81;5009186;28;20760;-66
2021/03/31 03:16:36;;;;;;;9.90;7.17;;;9.10;70.80;;;8.92;74.47;99001.69;5008226;28;20644;-66
2021/03/31 03:19:05;;;;;;;14.00;7.33;;;9.10;70.70;;;8.88;73.26;98994.94;5009361;28;20665;-66
2021/03/31 03:21:37;;;;;;;14.63;7.23;;;9.00;71.20;;;8.87;74.94;98995.84;5008553;28;20636;-66
2021/03/31 03:24:08;;;;;;;9.97;7.03;;;9.00;71.30;;;8.83;73.29;98992.56;5009128;28;23046;-66
2021/03/31 03:26:37;;;;;;;8.17;6.73;;;9.00;71.20;;;8.81;75.00;99001.31;5012806;28;22505;-66
2021/03/31 03:29:07;;;;;;;8.97;6.57;;;9.00;71.50;;;8.79;73.63;98995.38;5017103;28;20668;-66
2021/03/31 03:31:37;;;;;;;9.97;7.60;;;8.90;71.50;;;8.75;73.58;99004.22;5008856;28;20687;-66
2021/03/31 03:34:09;;;;;;;11.53;7.50;;;8.90;71.70;;;8.73;74.63;99006.06;5010791;28;22601;-66
2021/03/31 03:36:40;;;;;;;8.73;7.30;;;8.90;71.80;;;8.74;74.17;99008.59;5010045;28;20631;-66
2021/03/31 03:39:10;;;;;;;9.70;7.33;;;8.90;71.70;;;8.71;74.60;99013.09;5008468;28;20669;-66
2021/03/31 03:41:38;;;;;;;12.97;7.60;;;8.90;71.70;;;8.65;74.98;98996.00;5010942;28;20811;-66
2021/03/31 03:44:07;;;;;;;11.30;8.03;;;8.80;71.60;;;8.59;74.63;98998.06;5009509;28;20691;-66
2021/03/31 03:46:36;;;;;;;11.10;7.63;;;8.80;71.60;;;8.53;75.08;98998.34;5009092;28;20678;-68
2021/03/31 03:49:06;;;;;;;11.93;7.63;;;8.70;71.70;;;8.52;75.21;99001.84;5010538;28;20670;-67
2021/03/31 03:51:37;;;;;;;9.37;7.10;;;8.70;72.00;;;8.51;75.06;99000.16;5008808;28;20642;-66
2021/03/31 03:54:10;;;;;;;10.03;7.33;;;8.70;72.20;;;8.47;74.45;98996.00;5013796;28;20677;-66
2021/03/31 03:56:38;;;;;;;12.07;7.67;;;8.60;72.30;;;8.47;73.87;99001.22;5009704;28;20641;-66
2021/03/31 03:59:24;;;;;;;12.47;7.70;;;8.60;72.50;;;8.48;75.18;99005.50;5008524;28;21129;-66
2021/03/31 04:01:52;;;;;;;11.37;7.70;;;8.60;72.60;;;8.44;74.29;99008.31;5009546;28;20718;-66
2021/03/31 04:04:22;;;;;;;13.10;8.00;;;8.60;72.50;;;8.41;74.68;99001.50;5007228;28;20645;-66
2021/03/31 04:06:52;;;;;;;10.47;7.73;;;8.60;72.90;;;8.40;75.74;99005.00;5009381;28;20645;-67
2021/03/31 04:09:19;;;;;;;14.93;8.43;;;8.60;73.40;;;8.38;75.00;99006.81;5007486;28;20692;-66
2021/03/31 04:11:48;;;;;;;10.03;6.60;;;8.50;73.90;;;8.38;75.82;99011.19;5010719;28;21592;-66
2021/03/31 04:14:16;;;;;;;12.57;8.87;;;8.60;73.30;;;8.36;75.58;99006.06;5011410;28;20625;-66
2021/03/31 04:16:45;;;;;;;11.00;7.90;;;8.50;73.30;;;8.35;74.40;99008.72;5008514;28;20649;-66
2021/03/31 04:19:15;;;;;;;11.23;7.80;;;8.50;73.30;;;8.34;76.06;98999.22;5007818;28;21008;-66
2021/03/31 04:21:43;;;;;;;10.40;7.50;;;8.50;73.70;;;8.33;76.10;99001.00;5012999;28;21449;-66
2021/03/31 04:24:12;;;;;;;17.20;8.07;;;8.50;73.70;;;8.32;75.11;99003.66;5013700;28;20629;-66
2021/03/31 04:26:41;;;;;;;9.37;7.20;;;8.50;73.80;;;8.31;75.82;99001.97;5012346;28;21635;-68
2021/03/31 04:29:11;;;;;;;12.30;7.67;;;8.50;74.00;;;8.26;75.87;99007.38;5012427;28;21107;-66
2021/03/31 04:31:40;;;;;;;14.83;8.20;;;8.40;74.10;;;8.28;74.89;99010.72;5016027;28;20641;-66
2021/03/31 04:34:09;;;;;;;11.03;8.00;;;8.50;74.20;;;8.28;75.03;99013.31;5012155;28;20660;-66
2021/03/31 04:36:37;;;;;;;16.97;9.27;;;8.50;74.20;;;8.24;75.93;99006.59;5012705;28;20776;-66
2021/03/31 04:39:06;;;;;;;16.20;8.17;;;8.40;74.10;;;8.25;75.04;99012.63;5012416;28;20646;-66
2021/03/31 04:41:34;;;;;;;12.13;8.60;;;8.40;74.10;;;8.23;75.23;99017.06;5013768;28;20724;-66
2021/03/31 04:44:04;;;;;;;12.90;8.77;;;8.40;74.20;;;8.20;75.88;99015.44;5011458;28;20687;-66
2021/03/31 04:46:31;;;;;;;14.53;8.97;;;8.40;74.20;;;8.16;75.58;99008.72;5012358;28;22344;-66
2021/03/31 04:49:00;;;;;;;13.20;7.87;;;8.40;74.40;;;8.13;75.49;99006.25;5014257;28;20775;-66
2021/03/31 04:51:29;;;;;;;11.97;8.60;;;8.30;75.30;;;8.12;75.85;99012.34;5011581;28;21201;-66
2021/03/31 04:53:57;;;;;;;11.80;8.23;;;8.30;74.90;;;8.12;76.81;99006.31;5013410;28;21289;-66
2021/03/31 04:56:24;;;;;;;13.87;9.33;;;8.30;75.00;;;8.12;76.20;99007.13;5013641;28;20641;-66
2021/03/31 04:58:52;;;;;;;14.80;9.23;;;8.30;74.90;;;8.14;76.89;99004.47;5009548;28;20640;-66
2021/03/31 05:01:19;;;;;;;9.50;7.00;;;8.30;75.10;;;8.16;76.88;99005.25;5011789;28;20668;-66
2021/03/31 05:03:47;;;;;;;12.80;9.20;;;8.30;75.30;;;8.16;76.17;99000.91;5011859;28;20692;-66
2021/03/31 05:06:15;;;;;;;13.63;8.37;;;8.30;75.60;;;8.18;76.36;99006.88;5012012;28;20659;-66
2021/03/31 05:08:44;;;;;;;13.20;8.37;;;8.30;75.30;;;8.19;76.71;99008.53;5012463;28;20666;-66
2021/03/31 05:11:15;;;;;;;14.33;8.90;;;8.40;75.30;;;8.21;75.58;99001.53;5013623;28;20637;-66
2021/03/31 05:13:46;;;;;;;11.03;7.83;;;8.40;75.60;;;8.22;75.70;99003.22;5012862;28;20760;-71
2021/03/31 05:16:14;;;;;;;11.47;8.00;;;8.40;75.50;;;8.23;75.28;98998.88;5011029;28;20710;-65
2021/03/31 05:18:42;;;;;;;11.87;8.23;;;8.40;75.50;;;8.27;76.75;99011.66;5009954;28;20734;-65
2021/03/31 05:21:09;;;;;;;10.87;7.93;;;8.40;76.10;;;8.35;76.99;99004.34;5010895;28;21545;-65
2021/03/31 05:23:37;;;;;;;11.53;8.00;;;8.50;76.00;;;8.49;76.98;99015.84;5014629;28;24298;-65
2021/03/31 05:26:06;;;;;;;10.20;7.77;;;8.60;76.40;;;8.67;75.49;99003.72;5011059;28;21433;-65
2021/03/31 05:28:33;;;;;;;11.10;8.30;;;8.70;76.20;;;8.83;75.10;99005.56;5009228;28;20700;-65
2021/03/31 05:31:01;;;;;;;13.90;7.90;;;8.80;76.10;;;9.02;75.27;99004.63;5011266;28;20759;-65
2021/03/31 05:33:29;;;;;;;11.70;8.90;;;9.00;75.80;;;9.18;74.01;99005.56;5012718;28;20645;-65
2021/03/31 05:35:56;;;;;;;18.93;11.37;;;9.20;75.20;;;9.37;73.45;99008.09;5011729;28;20698;-66
2021/03/31 05:38:24;;;;;;;18.50;9.10;;;9.30;74.30;;;9.53;74.01;99002.06;5013476;28;20640;-66
2021/03/31 05:40:52;;;;;;;14.27;9.50;;;9.50;74.00;;;9.69;72.14;99000.41;5009320;28;20649;-66
2021/03/31 05:43:23;;;;;;;16.97;9.77;;;9.60;73.00;;;9.84;72.58;98999.63;5013179;28;20665;-66
2021/03/31 05:45:53;;;;;;;14.70;10.90;;;9.80;73.00;;;10.02;71.76;99010.81;5013413;28;20737;-65
2021/03/31 05:48:24;;;;;;;13.50;9.83;;;10.00;71.00;;;10.21;71.81;99003.75;5012538;28;21018;-65
2021/03/31 05:50:51;;;;;;;14.87;10.50;;;10.10;70.90;;;10.39;70.92;99002.78;5011808;28;20640;-65
2021/03/31 05:53:19;;;;;;;13.67;9.83;;;10.30;69.40;;;10.60;70.51;99001.59;5013977;28;20637;-65
2021/03/31 05:55:47;;;;;;;12.20;9.17;;;10.50;69.20;;;10.78;69.67;98992.78;5013584;28;21592;-66
2021/03/31 05:58:15;;;;;;;13.17;9.17;;;10.70;68.10;;;10.95;69.10;98993.56;5008820;28;20648;-66
2021/03/31 06:00:44;;;;;;;14.70;9.37;;;10.90;67.10;;;11.03;68.87;98997.41;5007861;28;20827;-66
2021/03/31 06:03:12;;;;;;;11.57;8.97;;;10.90;66.10;;;11.15;67.99;98993.28;5012929;28;20673;-66
2021/03/31 06:05:40;;;;;;;12.47;9.00;;;11.10;65.80;;;11.25;69.15;98997.91;5013854;28;20649;-66
2021/03/31 06:08:08;;;;;;;10.67;9.10;;;11.20;67.00;;;11.29;68.55;98989.81;5011870;28;20753;-66
2021/03/31 06:10:39;;;;;;;11.73;8.80;;;11.20;66.10;;;11.34;68.56;98982.53;5014851;28;20626;-66
2021/03/31 06:13:07;;;;;;;12.03;8.73;;;11.30;66.70;;;11.42;67.80;98996.00;5013066;28;20633;-66
2021/03/31 06:15:41;;;;;;;11.47;8.67;;;11.30;65.60;;;11.53;68.40;98992.81;5009390;28;20647;-66
2021/03/31 06:18:16;;;;;;;25.03;15.77;;;11.50;65.00;;;11.60;67.53;98988.91;5015219;28;21540;-66
2021/03/31 06:20:56;;;;;;;17.50;11.27;;;11.50;64.20;;;11.66;67.78;98989.38;5010452;28;20641;-66
2021/03/31 06:23:37;;;;;;;14.43;10.83;;;11.60;64.60;;;11.67;67.50;98991.09;5009908;28;20675;-66
2021/03/31 06:26:24;;;;;;;11.97;8.47;;;11.60;64.50;;;11.68;66.92;98991.91;5010536;28;20649;-66
2021/03/31 06:28:55;;;;;;;12.57;8.50;;;11.60;63.80;;;11.65;67.43;98984.25;5009766;28;20645;-66
2021/03/31 06:31:44;;;;;;;16.50;9.10;;;11.60;63.70;;;11.60;67.38;98999.38;5020268;28;20647;-66
2021/03/31 06:34:18;;;;;;;13.30;9.17;;;11.60;64.30;;;11.59;68.16;98989.84;5019268;28;20647;-66
2021/03/31 06:36:49;;;;;;;13.30;9.13;;;11.60;63.90;;;11.70;66.98;98995.28;5026548;28;20692;-66
2021/03/31 06:39:20;;;;;;;14.10;9.70;;;11.60;64.70;;;12.04;67.78;98987.97;5020854;28;20678;-66
2021/03/31 06:41:55;;;;;;;13.07;9.03;;;11.90;65.70;;;12.36;67.89;98992.97;5023626;28;20641;-66
2021/03/31 06:44:43;;;;;;;15.23;9.57;;;12.10;64.30;;;12.66;66.54;99001.50;5022699;28;21190;-66
2021/03/31 06:47:19;;;;;;;13.10;9.83;;;12.40;64.00;;;12.70;65.03;98998.59;5023842;28;20732;-66
2021/03/31 06:49:49;;;;;;;12.47;8.83;;;12.50;62.70;;;12.75;66.24;98996.56;5021280;28;20717;-66
2021/03/31 06:52:18;;;;;;;12.87;9.17;;;12.60;62.80;;;12.92;65.10;98999.81;5014085;28;20671;-66
2021/03/31 06:54:48;;;;;;;12.90;9.70;;;12.70;62.30;;;13.06;63.70;99001.56;5020804;28;20642;-66
2021/03/31 06:57:24;;;;;;;15.97;9.80;;;12.90;61.90;;;13.00;65.70;99008.03;5019794;28;20640;-66
2021/03/31 07:00:08;;;;;;;11.73;9.27;;;12.90;62.40;;;12.97;65.62;98995.13;5019112;28;20625;-66
2021/03/31 07:02:38;;;;;;;12.13;9.37;;;12.90;63.20;;;13.01;66.57;98994.00;5025386;28;20635;-66
2021/03/31 07:05:11;;;;;;;12.40;9.10;;;12.90;63.10;;;13.11;67.85;99002.13;5023840;28;22640;-66
2021/03/31 07:07:41;;;;;;;17.00;9.43;;;13.00;63.20;;;13.20;65.21;98997.16;5023252;28;20640;-66
2021/03/31 07:10:12;;;;;;;16.67;9.17;;;13.10;62.90;;;13.22;65.71;98993.47;5028279;28;20642;-66
2021/03/31 07:12:43;;;;;;;14.97;9.30;;;13.10;63.20;;;13.38;65.96;98999.41;5024052;28;20633;-66
2021/03/31 07:15:14;;;;;;;13.40;8.80;;;13.20;62.60;;;13.63;66.39;98998.66;5025148;28;20747;-66
2021/03/31 07:17:51;;;;;;;12.53;9.07;;;13.40;63.30;;;13.84;65.44;98988.41;5017954;28;21116;-66
2021/03/31 07:20:20;;;;;;;14.10;9.00;;;13.60;63.80;;;14.03;65.13;98991.47;5024943;28;20636;-66
2021/03/31 07:22:48;;;;;;;16.20;8.80;;;13.80;63.30;;;14.11;64.57;98985.75;5023861;28;20660;-66
2021/03/31 07:25:19;;;;;;;11.50;8.53;;;13.90;61.80;;;14.22;63.98;98989.28;5022975;28;20667;-66
2021/03/31 07:27:49;;;;;;;17.73;8.87;;;14.00;60.80;;;14.57;63.25;98985.06;5022241;28;20650;-66
2021/03/31 07:30:22;;;;;;;13.30;9.10;;;14.30;61.90;;;14.91;63.58;98986.03;5025579;28;20709;-66
2021/03/31 07:33:13;;;;;;;11.50;8.83;;;14.60;61.20;;;15.31;63.49;98990.16;5025970;28;20640;-66
2021/03/31 07:35:42;;;;;;;15.07;9.23;;;15.00;60.50;;;15.66;63.68;98984.78;5023089;28;21086;-67
2021/03/31 07:38:14;;;;;;;12.83;9.30;;;15.30;61.60;;;15.94;63.37;98994.94;5025265;28;21264;-67
2021/03/31 07:40:44;;;;;;;12.00;9.70;;;15.60;61.40;;;16.17;62.89;98984.34;5026351;28;20698;-67
2021/03/31 07:43:22;;;;;;;19.00;10.27;;;15.80;61.10;;;16.28;63.41;98991.44;5023740;28;20698;-67
2021/03/31 07:45:56;;;;;;;13.13;9.80;;;16.00;59.60;;;16.49;63.01;98989.81;5026517;28;21226;-67
2021/03/31 07:48:25;;;;;;;15.93;10.50;;;16.20;61.00;;;16.73;63.50;98989.56;5024687;28;20637;-67
2021/03/31 07:50:54;;;;;;;14.70;9.17;;;16.40;61.00;;;17.07;62.19;98997.31;5024696;28;20636;-67
2021/03/31 07:53:23;;;;;;;15.17;10.23;;;16.70;60.90;;;17.28;62.04;98995.63;5023330;28;20642;-67
2021/03/31 07:55:53;;;;;;;12.77;10.30;;;16.90;59.40;;;17.40;61.90;98999.06;5029315;28;20642;-67
2021/03/31 07:58:28;;;;;;;14.20;11.33;;;17.10;58.70;;;17.51;58.89;98998.09;5027927;28;20721;-67
2021/03/31 08:01:06;;;;;;;11.93;10.20;;;17.20;56.50;;;17.73;59.92;98987.44;5026862;28;21001;-67
2021/03/31 08:03:36;;;;;;;15.00;10.87;;;17.40;57.00;;;18.11;57.97;98985.88;5027655;28;20792;-67
2021/03/31 08:06:18;;;;;;;12.20;9.60;;;17.70;56.00;;;18.52;57.18;98985.88;5027731;28;20717;-67
2021/03/31 08:08:58;;;;;;;11.43;8.83;;;18.10;55.20;;;18.70;56.84;98985.16;5029195;28;20660;-67
2021/03/31 08:11:50;;;;;;;11.53;8.83;;;18.30;55.10;;;18.84;56.37;98992.72;5028872;28;21163;-67
2021/03/31 08:14:45;;;;;;;9.50;8.40;;;18.40;54.00;;;19.14;55.15;98987.41;5028785;28;20652;-67
2021/03/31 08:17:34;;;;;;;12.63;9.97;;;18.70;53.40;;;19.41;56.53;98989.28;5029183;28;20632;-67
2021/03/31 08:20:02;;;;;;;13.70;9.60;;;19.00;53.90;;;19.58;55.41;98996.53;5027201;28;21249;-67
2021/03/31 08:22:40;;;;;;;12.87;9.03;;;19.20;53.40;;;19.67;53.00;98990.41;5029669;28;20650;-67
2021/03/31 08:25:26;;;;;;;11.67;8.90;;;19.30;51.60;;;19.75;53.08;98982.59;5029395;28;20641;-67
2021/03/31 08:28:04;;;;;;;13.20;8.93;;;19.40;50.20;;;19.86;52.67;98974.56;5029236;28;21176;-67
2021/03/31 08:30:34;;;;;;;12.40;9.37;;;19.50;49.90;;;20.06;53.44;98976.22;5026893;28;20648;-67
2021/03/31 08:33:09;;;;;;;12.77;9.30;;;19.70;50.60;;;20.04;52.58;98979.00;5027404;28;20650;-67
2021/03/31 08:35:39;;;;;;;14.70;9.37;;;19.70;49.80;;;19.95;54.11;98979.84;5025567;28;20672;-67
2021/03/31 08:38:21;;;;;;;13.10;9.90;;;19.70;51.10;;;19.80;54.28;98976.88;5025977;28;21216;-67
2021/03/31 08:40:49;;;;;;;14.27;10.20;;;19.60;51.30;;;19.76;55.16;98978.16;5026803;28;20649;-67
2021/03/31 08:43:19;;;;;;;15.60;10.17;;;19.60;50.90;;;19.86;56.01;98987.81;5030218;28;20637;-67
2021/03/31 08:45:53;;;;;;;12.50;9.97;;;19.70;53.00;;;19.71;54.33;98981.22;5029884;28;21005;-67
2021/03/31 08:48:40;;;;;;;12.73;10.55;;;19.60;50.30;;;19.60;55.97;98973.41;5028340;28;20761;-67
2021/03/31 08:51:13;;;;;;;14.97;10.10;;;19.50;51.50;;;19.50;58.02;98977.88;5030877;28;20214;-67
2021/03/31 08:53:41;;;;;;;13.73;10.87;;;19.40;53.40;;;19.44;56.14;98973.13;5029500;28;20642;-67
2021/03/31 08:56:17;;;;;;;14.87;10.80;;;19.40;52.90;;;19.40;56.97;98971.72;5028934;28;21204;-66
2021/03/31 08:58:48;;;;;;;13.13;9.30;;;19.30;52.70;;;19.42;56.25;98972.44;5029646;28;20633;-66
2021/03/31 09:01:26;;;;;;;14.00;10.90;;;19.40;52.10;;;19.84;55.64;98976.47;5027373;28;20641;-66
2021/03/31 09:04:13;;;;;;;14.00;10.97;;;19.60;52.20;;;20.29;53.81;98972.25;5029621;28;20645;-66
2021/03/31 09:06:41;;;;;;;16.90;10.80;;;20.00;51.30;;;20.59;54.56;98973.69;5027768;28;20633;-66
2021/03/31 09:09:10;;;;;;;14.13;9.67;;;20.20;51.30;;;20.82;54.88;98975.03;5030123;28;20650;-66
2021/03/31 09:11:38;;;;;;;14.33;10.87;;;20.50;51.10;;;21.12;52.61;98974.75;5029741;28;20732;-66
2021/03/31 09:14:17;;;;;;;13.60;9.87;;;20.80;50.40;;;21.37;54.15;98972.22;5027984;28;20654;-66
2021/03/31 09:16:54;;;;;;;16.65;10.50;;;21.00;49.80;;;21.65;49.22;98969.38;5024903;28;20746;-66
2021/03/31 09:19:28;;;;;;;14.93;9.93;;;21.30;46.50;;;21.89;52.31;98956.28;5024712;28;20216;-66
2021/03/31 09:22:06;;;;;;;14.10;9.40;;;21.50;48.50;;;22.16;48.78;98965.00;5023257;28;20640;-67
2021/03/31 09:24:39;;;;;;;16.80;10.80;;;21.80;46.40;;;22.29;48.67;98955.63;5024502;28;21000;-67
2021/03/31 09:27:12;;;;;;;14.57;10.37;;;21.90;46.70;;;22.41;52.21;98953.56;5025267;28;20651;-67
2021/03/31 09:29:42;;;;;;;14.97;10.33;;;22.10;47.90;;;22.52;49.19;98953.28;5029823;28;20751;-67
2021/03/31 09:32:14;;;;;;;14.63;10.30;;;22.20;45.60;;;22.70;50.36;98949.56;5028703;28;20650;-67
2021/03/31 09:34:45;;;;;;;15.50;10.57;;;22.40;46.90;;;22.81;48.93;98957.28;5026702;28;20773;-66
2021/03/31 09:37:24;;;;;;;19.13;12.10;;;22.50;45.00;;;22.87;48.05;98948.66;5025783;28;20645;-67
2021/03/31 09:39:57;;;;;;;15.07;10.73;;;22.60;44.20;;;22.90;48.42;98945.69;5028129;28;20665;-67
2021/03/31 09:42:33;;;;;;;18.93;10.27;;;22.70;44.60;;;22.90;47.20;98940.38;5024632;28;20654;-67
2021/03/31 09:45:04;;;;;;;16.47;11.07;;;22.70;43.10;;;22.81;46.53;98930.69;5025226;28;20633;-67
2021/03/31 09:47:34;;;;;;;15.50;10.23;;;22.60;42.20;;;22.81;47.64;98942.16;5025645;28;20671;-67
2021/03/31 09:50:08;;;;;;;16.30;11.10;;;22.60;43.70;;;22.97;48.74;98936.94;5028260;28;20724;-67
2021/03/31 09:52:38;;;;;;;14.33;10.10;;;22.70;43.90;;;23.08;46.97;98933.13;5027785;28;20630;-67
2021/03/31 09:55:11;;;;;;;15.50;11.13;;;22.80;42.80;;;23.21;48.10;98940.50;5028176;28;20636;-67
2021/03/31 09:57:44;;;;;;;14.50;10.40;;;23.00;44.10;;;23.31;45.78;98930.53;5025203;28;20733;-67
2021/03/31 10:00:16;;;;;;;13.93;10.43;;;23.00;41.40;;;23.35;47.98;98939.03;5026980;28;20635;-66
2021/03/31 10:02:46;;;;;;;14.23;10.63;;;23.10;43.60;;;23.35;46.72;98934.53;5027999;28;20648;-66
2021/03/31 10:05:18;;;;;;;13.00;10.27;;;23.10;42.70;;;23.46;47.04;98928.91;5028843;28;20749;-66
2021/03/31 10:07:57;;;;;;;14.60;10.60;;;23.20;42.10;;;23.51;46.65;98926.56;5027222;28;20782;-66
2021/03/31 10:10:46;;;;;;;18.08;13.93;;;23.30;41.90;;;23.68;46.03;98925.63;5027410;28;21111;-66
2021/03/31 10:13:17;;;;;;;13.50;10.50;;;23.40;41.80;;;23.71;45.46;98917.31;5024949;28;20296;-66
2021/03/31 10:15:55;;;;;;;16.63;9.77;;;23.40;41.30;;;23.72;46.84;98914.47;5025219;28;20637;-66
2021/03/31 10:18:23;;;;;;;13.63;10.30;;;23.50;41.40;;;23.76;45.92;98906.97;5020807;28;20840;-66
2021/03/31 10:20:52;;;;;;;16.07;10.40;;;23.50;40.90;;;23.84;45.88;98906.97;5026867;28;20645;-66
2021/03/31 10:23:30;;;;;;;12.97;9.43;;;23.60;41.00;;;23.90;46.07;98909.78;5028035;28;20735;-66
2021/03/31 10:26:29;;;;;;;13.50;9.70;;;23.60;41.40;;;23.80;45.98;98905.63;5024613;28;20647;-66
2021/03/31 10:29:00;;;;;;;13.17;10.00;;;23.60;41.00;;;23.88;48.45;98894.97;5003519;28;20658;-66
2021/03/31 10:31:49;;;;;;;12.83;9.40;;;23.60;43.10;;;23.85;45.93;98897.97;5026788;28;20656;-66
2021/03/31 10:34:19;;;;;;;16.93;11.03;;;23.60;41.00;;;23.81;45.09;98888.63;5038409;28;21110;-66
2021/03/31 10:36:59;;;;;;;11.83;9.20;;;23.60;40.20;;;23.82;46.08;98882.31;5024358;28;21250;-66
2021/03/31 10:39:54;;;;;;;15.13;11.60;;;23.60;41.10;;;23.85;46.99;98888.13;5024684;28;20876;-66